Time;durP1;ratioP1;P1;durP2;ratioP2;P2;SDS_P1;SDS_P2;PMS_P1;PMS_P2;Temp;Humidity;BMP_temperature;BMP_pressure;BME280_temperature;BME280_humidity;BME280_pressure;Samples;Min_cycle;Max_cycle;Signal;HPM_P1;HPM_P2
2022/10/05 00:03:10;;;;;;;11.82;7.10;;;;;;;7.18;100.00;101398.88;5589663;31;34767;-68
2022/10/05 00:06:17;;;;;;;10.70;7.20;;;;;;;7.11;100.00;101403.81;5589592;31;34729;-68
2022/10/05 00:09:29;;;;;;;13.02;7.75;;;;;;;7.06;100.00;101395.44;5589593;31;34300;-68
2022/10/05 00:12:37;;;;;;;14.45;7.80;;;;;;;7.03;100.00;101402.72;5588502;31;34688;-68
2022/10/05 00:15:44;;;;;;;14.68;7.68;;;;;;;7.01;100.00;101392.31;5589452;31;34265;-68
2022/10/05 00:18:58;;;;;;;12.75;7.57;;;;;;;6.99;100.00;101391.56;5589573;31;34695;-69
2022/10/05 00:22:09;;;;;;;13.03;7.43;;;;;;;6.97;100.00;101394.31;5589423;31;34813;-69
2022/10/05 00:25:21;;;;;;;12.75;7.65;;;;;;;6.97;100.00;101393.50;5589371;31;34574;-68
2022/10/05 00:28:30;;;;;;;12.27;6.97;;;;;;;6.96;100.00;101395.31;5589306;31;34255;-68
2022/10/05 00:31:39;;;;;;;14.48;6.97;;;;;;;6.95;100.00;101396.25;5589251;31;35100;-68
2022/10/05 00:34:47;;;;;;;13.43;6.85;;;;;;;6.96;100.00;101392.66;5589250;31;34199;-69
2022/10/05 00:37:55;;;;;;;15.57;7.30;;;;;;;6.94;100.00;101385.81;5589093;31;34814;-68
2022/10/05 00:41:22;;;;;;;14.70;7.12;;;;;;;6.92;100.00;101382.47;5589006;31;34927;-69
2022/10/05 00:44:35;;;;;;;10.48;6.95;;;;;;;6.89;100.00;101385.34;5589165;31;34790;-68
2022/10/05 00:47:53;;;;;;;13.10;7.45;;;;;;;6.88;100.00;101388.91;5589369;31;34441;-69
2022/10/05 00:51:29;;;;;;;12.57;7.40;;;;;;;6.85;100.00;101386.53;5589088;31;34883;-69
2022/10/05 00:54:47;;;;;;;11.20;7.12;;;;;;;6.79;100.00;101385.22;5589004;31;34961;-68
2022/10/05 00:57:56;;;;;;;11.88;7.28;;;;;;;6.75;100.00;101380.28;5588883;31;34311;-69
2022/10/05 01:01:12;;;;;;;12.40;7.25;;;;;;;6.76;100.00;101379.34;5574928;31;34119;-69
2022/10/05 01:05:09;;;;;;;12.50;7.10;;;;;;;6.82;100.00;101386.78;5588796;31;34196;-69
2022/10/05 01:08:36;;;;;;;11.43;7.25;;;;;;;6.81;100.00;101383.31;5578118;31;34297;-69
2022/10/05 01:12:12;;;;;;;13.32;7.28;;;;;;;6.91;100.00;101391.34;5588643;31;34596;-69
2022/10/05 01:15:28;;;;;;;10.93;6.65;;;;;;;7.13;100.00;101401.88;5588519;31;34128;-69
2022/10/05 01:18:50;;;;;;;11.02;6.40;;;;;;;7.55;100.00;101405.53;5574567;31;33117;-69
2022/10/05 01:22:07;;;;;;;11.18;6.97;;;;;;;7.57;100.00;101408.06;5588945;31;34046;-69
2022/10/05 01:25:38;;;;;;;11.23;6.57;;;;;;;7.49;100.00;101415.78;5589857;31;34301;-69
2022/10/05 01:28:56;;;;;;;11.48;6.75;;;;;;;7.37;100.00;101415.78;5591274;31;34159;-69
2022/10/05 01:32:22;;;;;;;12.32;7.03;;;;;;;7.23;100.00;101421.31;5590910;31;34109;-69
2022/10/05 01:35:50;;;;;;;11.57;7.10;;;;;;;7.09;100.00;101412.81;5591050;31;34190;-69
2022/10/05 01:39:14;;;;;;;15.75;7.70;;;;;;;6.94;100.00;101426.22;5590680;31;34872;-69
2022/10/05 01:42:54;;;;;;;15.48;7.22;;;;;;;6.86;100.00;101423.34;5590825;31;34358;-69
2022/10/05 01:46:19;;;;;;;;;;;;;;;6.80;100.00;101421.19;5591210;31;34960;-69
2022/10/05 01:49:55;;;;;;;11.38;6.90;;;;;;;6.79;100.00;101414.22;5590890;31;34547;-70
2022/10/05 01:53:24;;;;;;;12.07;7.22;;;;;;;6.76;100.00;101413.63;5590729;31;34569;-69
2022/10/05 01:56:40;;;;;;;17.83;8.00;;;;;;;6.69;100.00;101405.34;5590687;31;34175;-69
2022/10/05 02:00:17;;;;;;;14.48;7.43;;;;;;;6.73;100.00;101412.03;5590569;31;34292;-70
2022/10/05 02:03:49;;;;;;;13.75;7.53;;;;;;;6.67;100.00;101425.72;5590331;31;35579;-70
2022/10/05 02:07:00;;;;;;;12.30;7.75;;;;;;;6.66;100.00;101431.09;5590515;31;34172;-69
2022/10/05 02:10:32;;;;;;;11.68;7.60;;;;;;;6.60;100.00;101431.56;5576914;31;32692;-69
2022/10/05 02:13:52;;;;;;;15.13;7.82;;;;;;;6.60;100.00;101435.03;5590550;31;34773;-70
2022/10/05 02:17:06;;;;;;;16.67;8.07;;;;;;;6.58;100.00;101439.63;5590625;31;34814;-69
2022/10/05 02:20:23;;;;;;;13.77;8.07;;;;;;;6.53;100.00;101439.12;5590459;31;35683;-70
2022/10/05 02:23:35;;;;;;;12.93;8.20;;;;;;;6.49;100.00;101437.66;5590521;31;34334;-70
2022/10/05 02:26:47;;;;;;;16.45;8.20;;;;;;;6.45;100.00;101438.84;5590534;31;35009;-69
2022/10/05 02:29:56;;;;;;;;;;;;;;;6.41;100.00;101443.50;5590755;31;34619;-70
2022/10/05 02:33:19;;;;;;;12.30;8.00;;;;;;;6.37;100.00;101444.69;5590578;31;35170;-69
2022/10/05 02:36:34;;;;;;;14.95;8.80;;;;;;;6.35;100.00;101445.75;5589867;31;34242;-69
2022/10/05 02:39:58;;;;;;;16.92;9.07;;;;;;;6.34;100.00;101452.00;5590318;31;34227;-70
2022/10/05 02:43:10;;;;;;;16.85;9.45;;;;;;;6.32;100.00;101446.00;5551126;32;34557;-70
2022/10/05 02:46:30;;;;;;;15.75;8.93;;;;;;;6.33;100.00;101448.53;5551163;32;34585;-70
2022/10/05 02:50:14;;;;;;;19.67;8.75;;;;;;;6.30;100.00;101454.00;5551180;32;34855;-70
2022/10/05 02:53:26;;;;;;;16.73;8.43;;;;;;;6.27;100.00;101451.59;5551099;32;34927;-70
2022/10/05 02:56:45;;;;;;;14.40;8.30;;;;;;;6.26;100.00;101447.28;5550132;32;33416;-70
2022/10/05 03:00:03;;;;;;;12.50;8.75;;;;;;;6.25;100.00;101452.66;5551127;32;34131;-69
2022/10/05 03:03:34;;;;;;;14.07;8.70;;;;;;;6.21;100.00;101451.22;5551115;32;34271;-70
2022/10/05 03:07:16;;;;;;;12.80;8.35;;;;;;;6.20;100.00;101447.72;5551045;32;35170;-70
2022/10/05 03:10:38;;;;;;;14.00;8.20;;;;;;;6.17;100.00;101447.97;5550048;32;34095;-70
2022/10/05 03:14:10;;;;;;;16.00;8.35;;;;;;;6.11;100.00;101441.34;5550790;32;34267;-70
2022/10/05 03:17:28;;;;;;;15.02;8.73;;;;;;;6.14;100.00;101442.94;5551174;32;34289;-70
2022/10/05 03:20:58;;;;;;;11.80;8.35;;;;;;;6.15;100.00;101428.78;5550888;32;34300;-70
2022/10/05 03:24:11;;;;;;;14.23;8.63;;;;;;;6.08;100.00;101427.56;5551087;32;34915;-70
2022/10/05 03:27:44;;;;;;;15.25;8.73;;;;;;;6.09;100.00;101430.09;5550707;32;34213;-70
2022/10/05 03:31:13;;;;;;;14.50;8.80;;;;;;;6.01;100.00;101427.19;5550750;32;34582;-70
2022/10/05 03:34:59;;;;;;;13.75;8.63;;;;;;;5.96;100.00;101434.56;5550720;32;34855;-69
2022/10/05 03:38:25;;;;;;;17.35;9.60;;;;;;;5.90;100.00;101436.84;5513067;32;34320;-70
2022/10/05 03:41:46;;;;;;;14.87;9.05;;;;;;;6.01;100.00;101444.78;5571719;31;34334;-70
2022/10/05 03:45:21;;;;;;;13.50;8.43;;;;;;;5.95;100.00;101440.81;5575673;31;32589;-70
2022/10/05 03:48:33;;;;;;;18.17;8.88;;;;;;;5.89;100.00;101449.16;5588410;31;35551;-70
2022/10/05 03:52:13;;;;;;;12.23;8.45;;;;;;;5.88;100.00;101451.91;5575821;31;33580;-70
2022/10/05 03:55:35;;;;;;;14.82;8.77;;;;;;;5.87;100.00;101455.47;5576478;31;34328;-70
2022/10/05 03:58:49;;;;;;;12.75;8.85;;;;;;;5.86;100.00;101465.13;5589619;31;34884;-70
2022/10/05 04:02:06;;;;;;;14.87;8.57;;;;;;;5.93;100.00;101462.94;5575785;31;33169;-70
2022/10/05 04:05:18;;;;;;;12.02;8.80;;;;;;;6.09;100.00;101466.16;5589555;31;34198;-70
2022/10/05 04:09:10;;;;;;;11.93;9.18;;;;;;;6.05;100.00;101457.59;5558655;31;1446576;-70
2022/10/05 04:12:41;;;;;;;16.70;9.10;;;;;;;5.96;100.00;101465.34;5584542;32;34431;-69
2022/10/05 04:16:03;;;;;;;11.77;8.30;;;;;;;5.93;100.00;101462.94;5571304;32;33247;-68
2022/10/05 04:19:26;;;;;;;13.10;8.75;;;;;;;5.91;100.00;101454.28;5584628;31;34418;-68
2022/10/05 04:22:38;;;;;;;16.08;8.88;;;;;;;5.88;100.00;101472.97;5584545;31;33891;-68
2022/10/05 04:25:58;;;;;;;16.35;8.82;;;;;;;5.85;100.00;101467.91;5584549;32;33768;-68
2022/10/05 04:29:16;;;;;;;14.35;9.13;;;;;;;5.92;100.00;101454.19;5584301;32;33777;-68
2022/10/05 04:32:43;;;;;;;11.85;8.35;;;;;;;5.95;100.00;101464.53;5558259;32;33998;-68
2022/10/05 04:36:01;;;;;;;14.32;8.82;;;;;;;5.89;100.00;101456.22;5571072;32;33791;-68
2022/10/05 04:40:04;;;;;;;15.30;9.25;;;;;;;5.91;100.00;101456.94;5584434;32;33825;-68
2022/10/05 04:43:41;;;;;;;16.83;8.80;;;;;;;5.89;100.00;101470.22;5472929;32;34104;-69
2022/10/05 04:46:55;;;;;;;15.55;8.50;;;;;;;5.88;100.00;101468.53;5485861;32;33725;-68
2022/10/05 04:50:25;;;;;;;19.20;12.20;;;;;;;5.91;100.00;101470.94;5485821;32;33821;-68
2022/10/05 04:53:55;;;;;;;17.12;9.25;;;;;;;6.00;100.00;101466.81;5485249;32;33981;-69
2022/10/05 04:57:09;;;;;;;17.67;9.35;;;;;;;6.06;100.00;101467.19;5485770;32;34465;-68
2022/10/05 05:00:24;;;;;;;13.15;8.95;;;;;;;5.95;100.00;101466.31;5473877;32;34415;-68
2022/10/05 05:04:08;;;;;;;19.25;10.73;;;;;;;5.85;100.00;101458.22;5472726;32;32434;-68
2022/10/05 05:07:34;;;;;;;29.80;10.90;;;;;;;5.79;100.00;101458.66;5473080;32;33867;-68
2022/10/05 05:10:50;;;;;;;21.67;11.73;;;;;;;5.83;100.00;101465.38;5485586;32;33994;-68
2022/10/05 05:13:58;;;;;;;19.30;12.07;;;;;;;5.83;100.00;101462.72;5552528;32;34453;-68
2022/10/05 05:17:34;;;;;;;22.17;11.52;;;;;;;5.88;100.00;101460.63;5583970;31;34041;-70
2022/10/05 05:21:03;;;;;;;55.33;13.27;;;;;;;5.94;100.00;101456.72;5540895;32;33829;-69
2022/10/05 05:24:37;;;;;;;27.13;12.80;;;;;;;5.94;100.00;101462.00;5570754;32;33766;-69
2022/10/05 05:27:52;;;;;;;21.33;11.02;;;;;;;5.95;100.00;101464.53;5570555;32;33857;-69
2022/10/05 05:31:09;;;;;;;18.80;11.55;;;;;;;5.97;100.00;101462.59;5571157;32;33913;-69
2022/10/05 05:34:44;;;;;;;20.00;11.55;;;;;;;6.07;100.00;101468.88;5556659;32;32399;-69
2022/10/05 05:38:01;;;;;;;22.80;11.50;;;;;;;6.17;100.00;101476.94;5570361;32;33875;-69
2022/10/05 05:41:11;;;;;;;22.23;11.85;;;;;;;6.28;100.00;101468.25;5570205;32;33821;-70
2022/10/05 05:44:25;;;;;;;15.30;10.80;;;;;;;6.35;100.00;101485.28;5570132;32;33896;-70
2022/10/05 05:47:36;;;;;;;20.00;10.80;;;;;;;6.49;100.00;101483.31;5556348;32;33147;-70
2022/10/05 05:51:04;;;;;;;21.77;10.13;;;;;;;6.62;100.00;101491.16;5570086;32;34150;-70
2022/10/05 05:54:38;;;;;;;22.20;10.93;;;;;;;6.69;100.00;101499.41;5569596;32;33854;-70
2022/10/05 05:57:55;;;;;;;21.65;11.07;;;;;;;6.86;100.00;101507.75;5570056;32;34611;-70
2022/10/05 06:01:24;;;;;;;16.10;9.90;;;;;;;7.02;100.00;101512.69;5570508;32;35187;-70
2022/10/05 06:04:44;;;;;;;16.50;10.25;;;;;;;7.15;100.00;101512.59;5570126;32;34552;-70
2022/10/05 06:07:51;;;;;;;20.65;11.30;;;;;;;7.27;100.00;101530.12;5569772;32;33991;-70
2022/10/05 06:11:13;;;;;;;19.05;11.55;;;;;;;7.39;100.00;101548.50;5556086;32;34138;-70
2022/10/05 06:14:36;;;;;;;20.70;11.60;;;;;;;7.51;100.00;101551.97;5569985;32;34126;-70
2022/10/05 06:17:46;;;;;;;17.65;11.57;;;;;;;7.63;100.00;101556.31;5570388;32;34572;-70
2022/10/05 06:20:58;;;;;;;17.50;11.15;;;;;;;7.72;100.00;101562.66;5543502;32;33947;-70
2022/10/05 06:24:14;;;;;;;16.35;10.75;;;;;;;7.79;100.00;101577.09;5569178;32;33978;-70
2022/10/05 06:27:36;;;;;;;14.32;9.07;;;;;;;7.87;100.00;101590.53;5556056;32;33291;-70
2022/10/05 06:30:46;;;;;;;15.27;8.88;;;;;;;8.03;100.00;101576.94;5554836;32;32595;-72
2022/10/05 06:33:52;;;;;;;16.02;8.55;;;;;;;8.05;100.00;101572.34;5570032;32;34647;-70
2022/10/05 06:37:07;;;;;;;15.65;8.68;;;;;;;8.19;100.00;101583.50;5570199;32;33859;-70
2022/10/05 06:40:20;;;;;;;12.65;8.10;;;;;;;8.30;100.00;101587.97;5556436;32;34442;-70
2022/10/05 06:43:37;;;;;;;14.55;8.77;;;;;;;8.33;100.00;101595.66;5556231;32;33900;-70
2022/10/05 06:47:02;;;;;;;14.43;9.02;;;;;;;8.40;100.00;101586.28;5555853;32;34525;-70
2022/10/05 06:50:17;;;;;;;15.13;8.20;;;;;;;8.60;100.00;101582.00;5555430;32;32604;-70
2022/10/05 06:53:37;;;;;;;19.48;9.32;;;;;;;8.66;100.00;101594.72;5569550;32;34418;-70
2022/10/05 06:56:51;;;;;;;14.73;8.68;;;;;;;8.62;100.00;101588.84;5569756;32;34527;-70
2022/10/05 07:00:13;;;;;;;13.20;9.07;;;;;;;8.72;100.00;101599.50;5556258;32;34935;-70
2022/10/05 07:03:48;;;;;;;19.20;8.27;;;;;;;8.80;100.00;101607.66;5569756;32;33853;-70
2022/10/05 07:06:58;;;;;;;17.08;8.80;;;;;;;9.02;100.00;101619.94;5569448;32;34192;-71
2022/10/05 07:10:16;;;;;;;15.10;8.77;;;;;;;9.25;100.00;101623.31;5569781;32;33716;-71
2022/10/05 07:13:19;;;;;;;14.77;8.15;;;;;;;9.44;100.00;101623.47;5569944;32;33794;-71
2022/10/05 07:16:41;;;;;;;13.75;8.30;;;;;;;9.88;100.00;101611.66;5569450;32;35286;-70
2022/10/05 07:19:55;;;;;;;13.55;7.97;;;;;;;9.88;100.00;101603.72;5555336;32;32326;-70
2022/10/05 07:23:39;;;;;;;17.15;8.30;;;;;;;9.93;100.00;101607.66;5556153;32;33072;-70
2022/10/05 07:26:55;;;;;;;16.10;7.62;;;;;;;10.33;100.00;101609.50;5569661;32;33902;-70
2022/10/05 07:30:06;;;;;;;14.52;7.00;;;;;;;11.10;100.00;101617.50;5569853;32;35054;-70
2022/10/05 07:33:19;;;;;;;;;;;;;;;12.39;100.00;101621.19;5555866;32;33196;-70
2022/10/05 07:40:24;;;;;;;12.40;5.25;;;;;;;14.77;80.98;101625.91;5569406;32;34563;-70
2022/10/05 07:43:47;;;;;;;11.12;4.85;;;;;;;16.73;70.85;101618.12;5570053;32;34667;-70
2022/10/05 07:47:29;;;;;;;7.10;4.32;;;;;;;18.99;65.21;101620.16;5555714;32;33004;-70
2022/10/05 07:50:48;;;;;;;10.38;4.78;;;;;;;20.27;56.36;101615.25;5556371;32;34359;-70
2022/10/05 07:54:09;;;;;;;13.62;4.87;;;;;;;20.75;55.70;101612.53;5555390;32;32190;-71
2022/10/05 07:57:38;;;;;;;10.95;5.03;;;;;;;21.31;55.24;101614.84;5569651;32;33764;-70
2022/10/05 08:00:47;;;;;;;10.70;5.00;;;;;;;20.22;54.32;101622.28;5569436;32;34671;-70
2022/10/05 08:03:55;;;;;;;;;;;;;;;21.52;52.54;101633.56;5555732;32;33393;-71
2022/10/05 08:07:03;;;;;;;9.60;5.15;;;;;;;22.60;49.49;101632.00;5555157;32;34268;-71
2022/10/05 08:10:13;;;;;;;11.93;5.40;;;;;;;23.11;48.63;101642.72;5569116;32;33866;-71
2022/10/05 08:13:29;;;;;;;12.68;5.50;;;;;;;24.56;43.87;101626.66;5568716;32;34009;-71
2022/10/05 08:16:36;;;;;;;10.15;5.75;;;;;;;23.38;45.82;101617.91;5555366;32;33841;-71
2022/10/05 08:19:58;;;;;;;10.02;5.65;;;;;;;25.09;43.40;101607.72;5555059;32;32693;-71
2022/10/05 08:23:18;;;;;;;15.50;5.60;;;;;;;26.54;39.84;101598.69;5555293;32;34010;-71
2022/10/05 08:26:30;;;;;;;12.77;5.70;;;;;;;27.06;38.56;101596.66;5554578;32;32564;-71
2022/10/05 08:30:05;;;;;;;9.18;5.78;;;;;;;22.78;45.50;101580.72;5554811;32;32482;-71
2022/10/05 08:33:16;;;;;;;14.57;7.05;;;;;;;23.24;44.66;101578.47;5567255;32;34544;-70
2022/10/05 08:36:42;;;;;;;12.27;6.97;;;;;;;20.12;52.56;101586.78;5568378;32;34526;-70
2022/10/05 08:40:14;;;;;;;12.73;7.20;;;;;;;18.47;59.02;101585.47;5541658;32;32237;-70
2022/10/05 08:43:53;;;;;;;13.95;7.70;;;;;;;17.70;62.77;101577.06;5568381;32;33959;-69
2022/10/05 08:47:11;;;;;;;16.65;7.68;;;;;;;17.13;65.01;101574.09;5568211;32;34537;-70
2022/10/05 08:50:40;;;;;;;17.45;8.40;;;;;;;16.53;69.85;101576.72;5568077;32;34215;-69
2022/10/05 08:53:53;;;;;;;15.35;8.57;;;;;;;16.33;69.07;101580.84;5560488;32;34961;-70
2022/10/05 08:57:10;;;;;;;15.40;7.75;;;;;;;15.93;72.79;101572.00;5570784;32;34618;-68
2022/10/05 09:00:19;;;;;;;19.98;8.10;;;;;;;15.70;72.60;101572.91;5570671;32;34523;-68
2022/10/05 09:03:48;;;;;;;;;;;;;;;15.36;74.48;101578.47;5570872;32;33866;-68
2022/10/05 09:07:04;;;;;;;14.77;7.00;;;;;;;15.01;76.03;101577.84;5570663;32;34721;-67
2022/10/05 09:10:38;;;;;;;13.65;6.60;;;;;;;14.98;73.52;101582.69;5570621;32;34206;-67
2022/10/05 09:14:03;;;;;;;15.63;6.80;;;;;;;14.92;74.94;101594.88;5537358;32;33780;-68
2022/10/05 09:17:37;;;;;;;11.50;6.15;;;;;;;14.87;74.03;101602.56;5570637;32;33923;-67
2022/10/05 09:21:20;;;;;;;17.15;7.82;;;;;;;15.00;73.70;101604.75;5570771;32;34060;-67
2022/10/05 09:24:54;;;;;;;13.25;8.02;;;;;;;14.93;75.92;101601.06;5539848;32;35238;-68
2022/10/05 09:28:21;;;;;;;17.58;7.72;;;;;;;15.21;72.12;101605.06;5571016;32;34118;-68
2022/10/05 09:31:35;;;;;;;15.27;8.30;;;;;;;15.34;72.87;101589.37;5570521;32;35057;-68
2022/10/05 09:34:54;;;;;;;13.00;7.15;;;;;;;15.59;71.55;101585.66;5570366;32;34110;-68
2022/10/05 09:38:24;;;;;;;15.73;7.45;;;;;;;15.87;69.89;101598.63;5556815;32;33836;-67
2022/10/05 09:41:43;;;;;;;12.32;6.20;;;;;;;15.99;70.47;101590.03;5570741;32;35203;-68
2022/10/05 09:45:15;;;;;;;11.23;5.72;;;;;;;16.42;70.88;101594.00;5557574;32;32676;-68
2022/10/05 09:49:10;;;;;;;8.50;5.32;;;;;;;16.57;67.13;101595.94;5570642;32;33878;-68
2022/10/05 09:52:52;;;;;;;10.52;5.53;;;;;;;16.46;68.45;101587.28;5569349;32;33906;-67
2022/10/05 09:56:18;;;;;;;15.50;5.65;;;;;;;16.87;65.71;101595.09;5556254;32;33348;-68
2022/10/05 09:59:28;;;;;;;10.27;5.60;;;;;;;16.57;67.14;101599.44;5556993;32;33986;-68
2022/10/05 10:03:13;;;;;;;13.20;6.22;;;;;;;16.41;69.44;101592.34;5570174;32;35161;-68
2022/10/05 10:06:55;;;;;;;16.00;6.25;;;;;;;16.03;69.98;101585.16;5569721;31;34018;-67
2022/10/05 10:10:31;;;;;;;10.25;5.68;;;;;;;16.15;72.02;101585.63;5556581;32;33822;-67
2022/10/05 10:13:52;;;;;;;10.90;5.53;;;;;;;16.28;71.55;101577.84;5570354;32;34025;-67
2022/10/05 10:16:56;;;;;;;15.25;5.95;;;;;;;16.39;71.07;101582.81;5570349;32;33950;-67
2022/10/05 10:20:11;;;;;;;14.20;5.85;;;;;;;16.37;69.97;101572.28;5570335;32;33913;-68
2022/10/05 10:23:15;;;;;;;11.02;5.78;;;;;;;16.45;69.14;101588.31;5570483;32;34438;-67
2022/10/05 10:26:49;;;;;;;10.30;5.50;;;;;;;16.54;69.23;101583.75;5570144;32;33801;-68
2022/10/05 10:30:11;;;;;;;10.13;5.05;;;;;;;16.89;67.73;101593.06;5569659;32;34596;-69
2022/10/05 10:33:39;;;;;;;9.68;5.40;;;;;;;17.18;65.64;101592.34;5570268;32;34305;-67
2022/10/05 10:37:05;;;;;;;12.13;6.20;;;;;;;17.27;65.82;101577.81;5570217;32;33851;-67
2022/10/05 10:40:34;;;;;;;16.65;6.18;;;;;;;16.86;66.40;101583.53;5569751;32;33839;-68
2022/10/05 10:44:11;;;;;;;9.73;5.10;;;;;;;17.16;66.79;101584.47;5570086;32;33797;-68
2022/10/05 10:47:33;;;;;;;10.55;5.20;;;;;;;17.23;66.30;101581.91;5556262;32;33094;-68
2022/10/05 10:51:05;;;;;;;16.33;5.50;;;;;;;17.59;65.58;101584.72;5569975;32;34503;-69
2022/10/05 10:54:26;;;;;;;13.73;5.37;;;;;;;18.22;63.92;101581.44;5570123;32;34750;-68
2022/10/05 10:58:00;;;;;;;9.07;4.80;;;;;;;19.15;59.63;101585.94;5569705;32;34581;-69
2022/10/05 11:01:11;;;;;;;8.95;5.10;;;;;;;19.00;59.34;101592.22;5543101;32;34004;-68
2022/10/05 11:04:20;;;;;;;11.12;5.45;;;;;;;19.08;59.65;101588.56;5570028;32;35057;-69
2022/10/05 11:07:30;;;;;;;;;;;;;;;20.82;53.10;101594.47;5570017;32;33882;-67
2022/10/05 11:10:53;;;;;;;8.18;5.30;;;;;;;20.56;54.11;101587.19;5569951;32;34241;-67
2022/10/05 11:14:01;;;;;;;10.63;5.35;;;;;;;20.17;54.86;101592.41;5556129;32;33421;-67
2022/10/05 11:17:14;;;;;;;7.75;4.85;;;;;;;21.69;51.06;101591.53;5555358;32;34528;-68
2022/10/05 11:20:23;;;;;;;11.68;5.15;;;;;;;23.03;47.21;101578.03;5569685;32;34183;-69
2022/10/05 11:23:45;;;;;;;10.83;4.57;;;;;;;25.03;43.30;101576.06;5569675;32;33886;-68
2022/10/05 11:27:11;;;;;;;7.80;4.00;;;;;;;25.32;41.60;101582.44;5569410;32;34782;-69
2022/10/05 11:30:21;;;;;;;8.65;4.20;;;;;;;25.14;42.46;101579.03;5555843;32;32328;-69
2022/10/05 11:33:31;;;;;;;9.35;4.43;;;;;;;25.78;41.88;101575.38;5569400;32;34487;-69
2022/10/05 11:36:57;;;;;;;8.32;4.85;;;;;;;26.58;39.57;101568.00;5555650;32;34076;-69
2022/10/05 11:40:41;;;;;;;9.35;5.12;;;;;;;26.42;39.43;101566.09;5569438;32;33978;-68
2022/10/05 11:43:47;;;;;;;9.02;5.03;;;;;;;25.23;41.32;101561.31;5569425;32;34489;-69
2022/10/05 11:47:20;;;;;;;10.75;5.40;;;;;;;24.68;43.91;101553.44;5569686;32;35130;-69
2022/10/05 11:51:05;;;;;;;11.07;6.57;;;;;;;26.45;39.74;101557.44;5569005;32;35200;-68
2022/10/05 11:54:30;;;;;;;13.90;5.70;;;;;;;25.63;41.52;101558.72;5542892;32;33839;-68
2022/10/05 11:57:50;;;;;;;17.75;5.82;;;;;;;26.95;39.82;101549.34;5555261;32;32621;-68
2022/10/05 12:01:04;;;;;;;12.40;5.90;;;;;;;26.51;40.89;101539.31;5569098;32;34512;-67
2022/10/05 12:04:41;;;;;;;11.40;6.03;;;;;;;24.16;45.17;101533.28;5568994;32;34483;-69
2022/10/05 12:08:05;;;;;;;12.55;5.80;;;;;;;24.91;44.47;101523.66;5568590;32;34550;-68
2022/10/05 12:11:32;;;;;;;8.70;5.85;;;;;;;25.17;44.00;101527.81;5568841;32;33829;-68
2022/10/05 12:15:00;;;;;;;14.32;5.72;;;;;;;24.00;46.34;101531.22;5569110;32;34077;-68
2022/10/05 12:18:17;;;;;;;9.25;5.75;;;;;;;24.50;45.55;101527.19;5568971;32;33833;-67
2022/10/05 12:21:38;;;;;;;13.68;6.18;;;;;;;23.97;46.93;101529.75;5554744;32;33941;-66
2022/10/05 12:25:01;;;;;;;9.73;5.50;;;;;;;22.64;50.01;101525.84;5554745;32;33016;-67
2022/10/05 12:28:15;;;;;;;11.05;5.47;;;;;;;21.55;53.14;101525.09;5568746;32;34297;-66
2022/10/05 12:31:28;;;;;;;14.90;5.72;;;;;;;21.06;54.27;101522.88;5557072;32;32718;-66
2022/10/05 12:34:56;;;;;;;11.68;4.93;;;;;;;20.90;56.22;101518.75;5557639;32;33545;-67
2022/10/05 12:38:15;;;;;;;7.85;4.85;;;;;;;21.23;55.13;101514.19;5571252;32;33465;-66
2022/10/05 12:41:27;;;;;;;12.90;5.20;;;;;;;20.58;55.15;101501.50;5557566;32;32362;-67
2022/10/05 12:44:59;;;;;;;12.85;6.35;;;;;;;19.95;58.40;101498.22;5556967;32;32197;-67
2022/10/05 12:48:36;;;;;;;14.73;6.15;;;;;;;19.60;59.81;101480.50;5571240;32;33884;-68
2022/10/05 12:51:48;;;;;;;9.93;4.95;;;;;;;19.96;60.05;101493.66;5544717;32;33480;-67
2022/10/05 12:55:20;;;;;;;15.80;6.45;;;;;;;20.66;57.13;101493.22;5557228;32;32902;-67
2022/10/05 12:58:46;;;;;;;11.12;5.30;;;;;;;20.36;59.53;101482.00;5570888;32;33978;-67
2022/10/05 13:01:49;;;;;;;11.93;4.90;;;;;;;20.54;58.75;101475.16;5557353;32;33798;-67
2022/10/05 13:05:22;;;;;;;12.98;4.95;;;;;;;20.38;57.00;101479.09;5570668;32;33889;-66
2022/10/05 13:08:36;;;;;;;13.80;3.83;;;;;;;19.86;59.48;101479.75;5570592;32;33886;-67
2022/10/05 13:11:50;;;;;;;13.43;4.82;;;;;;;19.83;59.27;101491.78;5570488;32;34839;-68
2022/10/05 13:15:17;;;;;;;10.43;3.92;;;;;;;20.06;57.51;101491.44;5571006;32;34689;-67
2022/10/05 13:18:36;;;;;;;9.90;3.97;;;;;;;19.80;58.32;101485.97;5556776;32;34295;-66
2022/10/05 13:21:56;;;;;;;14.90;3.55;;;;;;;19.85;57.91;101483.47;5570563;32;33802;-67
2022/10/05 13:25:24;;;;;;;5.28;2.60;;;;;;;20.09;57.07;101472.16;5556868;32;32270;-67
2022/10/05 13:28:49;;;;;;;5.03;2.22;;;;;;;19.80;55.74;101472.50;5570449;32;34118;-67
2022/10/05 13:31:56;;;;;;;7.40;2.35;;;;;;;19.86;55.70;101477.91;5570733;32;34585;-67
2022/10/05 13:35:24;;;;;;;5.00;1.77;;;;;;;20.00;56.97;101469.84;5570386;32;33871;-67
2022/10/05 13:38:33;;;;;;;6.43;1.92;;;;;;;19.91;54.20;101477.28;5556462;32;33252;-67
2022/10/05 13:42:03;;;;;;;5.25;2.00;;;;;;;20.08;54.13;101473.22;5570181;32;33816;-67
2022/10/05 13:45:20;;;;;;;7.65;2.30;;;;;;;19.87;55.15;101467.97;5570184;32;34528;-67
2022/10/05 13:48:53;;;;;;;6.20;2.53;;;;;;;20.00;55.68;101470.69;5570349;32;33965;-67
2022/10/05 13:52:13;;;;;;;7.40;2.20;;;;;;;19.86;55.57;101459.03;5570743;32;33833;-68
2022/10/05 13:55:28;;;;;;;7.97;2.35;;;;;;;19.92;57.48;101457.41;5570116;32;33782;-67
2022/10/05 13:58:48;;;;;;;7.85;2.80;;;;;;;19.88;56.04;101467.75;5555964;32;32601;-68
2022/10/05 14:02:03;;;;;;;14.40;2.65;;;;;;;19.55;58.81;101469.50;5570196;32;35093;-68
2022/10/05 14:05:21;;;;;;;9.07;2.28;;;;;;;19.58;57.67;101474.47;5543206;32;36026;-68
2022/10/05 14:08:34;;;;;;;7.82;2.42;;;;;;;19.43;58.88;101477.25;5549457;32;32748;-68
2022/10/05 14:12:04;;;;;;;7.62;2.55;;;;;;;19.20;58.70;101463.25;5549486;32;32355;-68
2022/10/05 14:15:30;;;;;;;7.97;2.70;;;;;;;19.06;59.84;101470.44;5551039;32;33797;-68
2022/10/05 14:18:37;;;;;;;8.07;2.95;;;;;;;18.75;60.26;101466.44;5549249;32;33553;-67
2022/10/05 14:22:05;;;;;;;12.60;2.60;;;;;;;18.85;60.14;101465.09;5550297;32;34455;-68
2022/10/05 14:25:18;;;;;;;6.12;2.78;;;;;;;18.95;62.75;101464.75;5549831;32;34700;-68
2022/10/05 14:28:30;;;;;;;7.75;3.75;;;;;;;18.62;60.80;101464.50;5549944;32;34605;-67
2022/10/05 14:31:36;;;;;;;5.25;2.35;;;;;;;18.87;59.75;101460.37;5549894;32;34032;-67
2022/10/05 14:34:54;;;;;;;8.02;2.87;;;;;;;18.81;60.73;101457.63;5548550;32;32955;-67
2022/10/05 14:38:01;;;;;;;9.93;2.75;;;;;;;18.68;62.19;101463.72;5549272;32;35151;-68
2022/10/05 14:41:26;;;;;;;9.73;2.55;;;;;;;18.56;63.84;101460.72;5548613;32;33653;-67
2022/10/05 14:44:31;;;;;;;9.50;3.20;;;;;;;18.52;63.14;101469.34;5549299;32;34338;-67
2022/10/05 14:47:45;;;;;;;9.88;2.90;;;;;;;18.35;62.57;101471.44;5549097;32;32283;-66
2022/10/05 14:51:02;;;;;;;11.63;3.20;;;;;;;18.22;63.50;101465.94;5549137;32;34347;-69
2022/10/05 14:54:33;;;;;;;7.20;2.85;;;;;;;18.14;64.34;101469.59;5549338;32;32899;-67
2022/10/05 14:57:56;;;;;;;9.40;3.08;;;;;;;17.85;64.79;101467.00;5550013;32;33898;-67
2022/10/05 15:01:19;;;;;;;6.12;2.85;;;;;;;17.81;65.02;101445.03;5548470;32;32446;-68
2022/10/05 15:04:30;;;;;;;5.78;2.87;;;;;;;17.76;66.97;101446.66;5548494;32;33450;-67
2022/10/05 15:07:42;;;;;;;9.80;3.10;;;;;;;17.59;65.33;101442.50;5561342;31;34127;-67
2022/10/05 15:10:55;;;;;;;5.85;2.40;;;;;;;17.37;66.62;101429.03;5555397;32;32572;-66
2022/10/05 15:14:05;;;;;;;11.73;3.80;;;;;;;17.45;65.18;101432.59;5569275;32;33929;-67
2022/10/05 15:17:19;;;;;;;16.17;3.35;;;;;;;17.37;66.29;101444.28;5569057;32;34556;-67
2022/10/05 15:20:51;;;;;;;7.87;2.65;;;;;;;17.31;68.17;101450.37;5556232;32;34186;-67
2022/10/05 15:24:03;;;;;;;10.30;2.72;;;;;;;17.13;67.94;101445.41;5568961;32;34045;-67
2022/10/05 15:27:22;;;;;;;7.90;2.80;;;;;;;17.00;67.76;101450.53;5555077;32;33636;-67
2022/10/05 15:30:32;;;;;;;8.75;3.15;;;;;;;16.93;67.39;101441.59;5569250;32;34021;-67
2022/10/05 15:33:54;;;;;;;10.90;2.90;;;;;;;16.85;68.77;101423.72;5555844;32;34063;-67